Latest Weather Observations for Hobart Airport

IDT60801

Issued at 9:51 am EDT Saturday 17 November 2018 (issued every 10 minutes, with the page automatically refreshed every 10 minutes)

About weather observations | Map of weather stations | Latest weather observations for TAS | Other Formats
Station Details ID: 094008 Name: HOBART AIRPORT Lat: -42.83 Lon: 147.50 Height: 4.0 m
Data from the previous 72 hours. | See also: Recent months at Hobart Airport
Date/Time
EDT
Temp
°C
App
Temp
°C
Dew
Point
°C
Rel
Hum
%
Delta-T
°C
Wind Press
QNH
hPa
Press
MSL
hPa
Rain since
9am
mm
Dir  Spd
km/h
Gust
km/h
Spd
kts
Gust
kts
17/09:30am 13.9 8.9 3.4 49 4.7 NNW 19 26 10 14 1023.8 1023.8 0.0
17/09:00am 13.6 8.5 3.9 52 4.4 NW 20 26 11 14 1024.0 1024.0 0.0
17/08:30am 12.4 7.5 4.2 57 3.7 NW 19 26 10 14 1023.9 1023.9 0.0
17/08:00am 10.8 5.9 4.3 64 2.9 NW 19 26 10 14 1023.7 1023.7 0.0
17/07:30am 9.8 5.7 4.6 70 2.3 NW 15 20 8 11 1023.7 1023.7 0.0
17/07:00am 8.9 4.8 4.3 73 2.0 NW 15 22 8 12 1023.4 1023.4 0.0
17/06:30am 8.1 4.4 4.7 79 1.5 NW 13 19 7 10 1023.3 1023.3 0.0
17/06:00am 7.2 3.6 4.9 85 1.0 NW 13 17 7 9 1023.1 1023.1 0.0
17/05:30am 6.1 2.4 4.7 91 0.6 NW 13 15 7 8 1022.9 1022.9 0.0
17/05:00am 6.9 3.9 5.8 93 0.5 NW 11 17 6 9 1022.7 1022.7 0.0
17/04:30am 6.6 3.1 5.5 93 0.5 NW 13 17 7 9 1022.4 1022.4 0.0
17/04:00am 6.8 3.0 5.7 93 0.5 NW 15 19 8 10 1022.3 1022.3 0.0
17/03:30am 7.6 4.7 6.3 91 0.6 NW 11 15 6 8 1022.3 1022.3 0.0
17/03:00am 6.8 3.4 5.7 93 0.5 WNW 13 13 7 7 1022.6 1022.6 0.0
17/02:30am 6.5 4.2 5.6 94 0.4 WNW 7 9 4 5 1022.6 1022.6 0.0
17/02:00am 7.9 3.5 6.4 90 0.7 NW 19 20 10 11 1022.6 1022.6 0.0
17/01:30am 7.5 5.9 6.2 91 0.6 NW 4 9 2 5 1022.6 1022.6 0.0
17/01:00am 8.1 5.6 6.6 90 0.7 NNW 9 11 5 6 1022.6 1022.6 0.0
17/12:30am 8.7 5.2 7.2 90 0.7 NW 15 17 8 9 1022.9 1022.9 0.0
17/12:00am 9.2 6.3 6.6 84 1.2 WNW 11 11 6 6 1023.0 1023.0 0.0
 
Date/Time
EDT
Temp
°C
App
Temp
°C
Dew
Point
°C
Rel
Hum
%
Delta-T
°C
Wind Press
QNH
hPa
Press
MSL
hPa
Rain since
9am
mm
Dir  Spd
km/h
Gust
km/h
Spd
kts
Gust
kts
16/11:30pm 8.4 5.9 5.0 79 1.5 WNW 7 9 4 5 1022.9 1022.9 0.0
16/11:00pm 8.8 6.0 5.0 77 1.7 WNW 9 9 5 5 1022.9 1022.9 0.0
16/10:30pm 8.2 7.1 5.0 80 1.4 CALM 0 0 0 0 1022.8 1022.8 0.0
16/10:00pm 9.7 7.5 5.3 74 2.0 ESE 6 7 3 4 1022.7 1022.7 0.0
16/09:30pm 11.4 7.9 5.3 66 2.8 SSE 13 17 7 9 1022.6 1022.6 0.0
16/09:00pm 11.9 7.6 5.4 64 3.0 S 17 20 9 11 1022.2 1022.2 0.0
16/08:30pm 11.3 6.8 5.9 69 2.5 S 19 24 10 13 1021.9 1021.9 0.0
16/08:00pm 12.2 7.6 5.8 65 3.0 S 19 26 10 14 1021.6 1021.6 0.0
16/07:30pm 12.7 8.6 6.1 64 3.1 SSE 17 20 9 11 1021.2 1021.2 0.0
16/07:00pm 12.7 8.1 6.6 66 2.9 SSE 20 28 11 15 1021.0 1021.0 0.0
16/06:30pm 12.5 8.0 6.9 68 2.7 SSE 20 30 11 16 1020.7 1020.7 0.0
16/06:00pm 12.7 6.9 6.4 65 3.0 S 26 35 14 19 1020.6 1020.6 0.0
16/05:30pm 13.1 7.0 6.4 64 3.2 S 28 35 15 19 1020.2 1020.2 0.0
16/05:00pm 13.6 7.1 6.5 62 3.4 S 30 37 16 20 1020.0 1020.0 0.0
16/04:30pm 14.0 7.3 7.5 65 3.2 S 32 41 17 22 1019.9 1019.9 0.0
16/04:00pm 14.5 10.4 8.8 68 2.9 SSE 20 28 11 15 1019.9 1019.9 0.0
16/03:30pm 15.2 11.3 5.2 51 4.7 SE 15 22 8 12 1020.1 1020.1 0.0
16/03:00pm 15.7 10.5 5.7 51 4.8 SE 22 28 12 15 1019.9 1019.9 0.0
16/02:30pm 15.4 10.5 6.8 56 4.2 SSE 22 28 12 15 1020.0 1020.0 0.0
16/02:00pm 15.8 10.5 6.8 55 4.4 S 24 30 13 16 1020.1 1020.1 0.0
16/01:30pm 16.3 13.2 5.4 48 5.2 SE 11 15 6 8 1020.2 1020.2 0.0
16/01:00pm 16.6 13.7 4.7 45 5.6 S 9 15 5 8 1020.4 1020.4 0.0
16/12:30pm 17.0 13.8 5.0 45 5.7 NNW 11 17 6 9 1020.4 1020.4 0.0
16/12:00pm 16.8 13.2 5.0 45 5.6 NW 13 19 7 10 1020.8 1020.8 0.0
16/11:30am 16.2 12.2 5.0 47 5.3 NW 15 20 8 11 1021.2 1021.2 0.0
16/11:00am 15.6 11.5 6.3 54 4.5 WNW 17 24 9 13 1021.3 1021.3 0.0
16/10:30am 14.9 12.4 6.6 57 4.0 NW 9 17 5 9 1021.6 1021.6 0.0
16/10:00am 13.8 11.3 6.5 61 3.5 NW 9 13 5 7 1021.9 1021.9 0.0
16/09:30am 13.3 10.4 6.4 63 3.3 WNW 11 15 6 8 1022.3 1022.3 0.0
16/09:00am 12.7 10.1 5.9 63 3.2 NW 9 13 5 7 1022.5 1022.5 0.8
16/08:30am 11.9 9.2 5.6 65 2.9 WNW 9 13 5 7 1022.8 1022.8 0.8
16/08:00am 11.1 8.1 5.9 70 2.4 NW 11 15 6 8 1022.8 1022.8 0.8
16/07:30am 11.3 8.7 6.2 71 2.4 NW 9 15 5 8 1022.6 1022.6 0.8
16/07:00am 10.4 8.4 7.0 79 1.6 NNW 7 11 4 6 1022.5 1022.5 0.8
16/06:30am 9.9 7.3 6.0 77 1.8 N 9 15 5 8 1022.5 1022.5 0.8
16/06:00am 9.9 6.3 5.0 71 2.2 N 13 17 7 9 1022.5 1022.5 0.8
16/05:30am 10.1 7.6 4.7 69 2.4 N 7 11 4 6 1022.6 1022.6 0.8
16/05:00am 9.6 7.1 4.9 72 2.1 NNW 7 11 4 6 1022.5 1022.5 0.8
16/04:30am 9.7 8.3 5.3 74 2.0 N 2 7 1 4 1022.4 1022.4 0.8
16/04:00am 9.7 7.3 5.3 74 2.0 NNW 7 9 4 5 1022.7 1022.7 0.8
16/03:59am 9.7 7.3 5.3 74 2.0 NNW 7 9 4 5 1022.7 1022.7 0.8
16/03:30am 9.7 7.7 4.5 70 2.3 N 4 7 2 4 1023.2 1023.2 0.8
16/03:00am 9.9 7.7 5.2 72 2.1 N 6 7 3 4 1023.8 1023.8 0.8
16/02:30am 9.9 8.4 5.0 71 2.2 ENE 2 6 1 3 1024.2 1024.2 0.8
16/02:00am 10.2 9.0 4.8 69 2.4 CALM 0 0 0 0 1024.6 1024.6 0.8
16/01:30am 10.1 8.3 3.4 63 2.9 ENE 2 6 1 3 1025.1 1025.1 0.8
16/01:00am 10.3 8.9 3.7 63 2.9 CALM 0 7 0 4 1025.6 1025.6 0.8
16/12:30am 10.3 8.6 3.9 64 2.8 ENE 2 7 1 4 1026.0 1026.0 0.8
16/12:00am 10.4 7.7 3.5 62 3.0 E 7 9 4 5 1026.0 1026.0 0.8
 
Date/Time
EDT
Temp
°C
App
Temp
°C
Dew
Point
°C
Rel
Hum
%
Delta-T
°C
Wind Press
QNH
hPa
Press
MSL
hPa
Rain since
9am
mm
Dir  Spd
km/h
Gust
km/h
Spd
kts
Gust
kts
15/11:30pm 10.5 7.7 3.1 60 3.2 E 7 9 4 5 1026.4 1026.4 0.8
15/11:00pm 10.5 7.3 2.8 59 3.3 ENE 9 11 5 6 1026.3 1026.3 0.8
15/10:30pm 10.6 7.8 2.9 59 3.3 ENE 7 9 4 5 1026.5 1026.5 0.8
15/10:00pm 10.3 7.1 2.8 59 3.2 E 9 13 5 7 1026.4 1026.4 0.8
15/09:30pm 11.2 7.9 2.3 54 3.8 SE 9 15 5 8 1026.8 1026.8 0.8
15/09:00pm 11.4 6.8 1.7 51 4.1 SSE 15 19 8 10 1026.5 1026.5 0.8
15/08:30pm 11.3 6.4 1.8 52 4.0 SSE 17 20 9 11 1026.2 1026.2 0.8
15/08:00pm 11.4 6.4 1.4 50 4.2 S 17 22 9 12 1026.1 1026.1 0.8
15/07:30pm 11.8 6.3 1.6 49 4.3 S 20 28 11 15 1026.1 1026.1 0.8
15/07:00pm 12.0 5.6 1.0 47 4.6 S 24 32 13 17 1025.8 1025.8 0.8
15/06:30pm 12.4 5.9 0.3 43 5.0 S 24 35 13 19 1025.4 1025.4 0.8
15/06:00pm 12.7 5.8 0.1 42 5.2 SSE 26 33 14 18 1025.3 1025.3 0.8
15/05:30pm 13.5 6.3 0.7 41 5.4 S 28 33 15 18 1025.1 1025.1 0.8
15/05:00pm 13.2 6.5 1.2 44 5.1 SSE 26 37 14 20 1024.9 1024.9 0.8
15/04:30pm 12.7 5.6 1.4 46 4.8 SSE 28 33 15 18 1024.8 1024.8 0.8
15/04:00pm 13.2 6.8 3.0 50 4.5 SSE 26 32 14 17 1024.6 1024.6 0.8
15/03:30pm 12.8 5.9 2.4 49 4.5 SSE 28 33 15 18 1024.6 1024.6 0.6
15/03:00pm 12.4 5.5 2.8 52 4.2 SSE 28 35 15 19 1024.5 1024.5 0.6
15/02:30pm 12.1 6.8 4.9 61 3.3 S 22 32 12 17 1024.7 1024.7 0.6
15/02:00pm 13.1 7.1 5.3 59 3.6 SSE 26 35 14 19 1024.4 1024.4 0.6
15/01:30pm 13.2 7.6 5.5 59 3.6 SSE 24 32 13 17 1024.1 1024.1 0.6
15/01:00pm 12.4 6.7 6.7 68 2.7 SSE 26 35 14 19 1024.1 1024.1 0.6
15/12:30pm 12.2 7.2 6.5 68 2.7 SSE 22 28 12 15 1024.0 1024.0 0.6
15/12:00pm 12.0 7.6 6.7 70 2.5 S 19 30 10 16 1023.8 1023.8 0.6
15/11:30am 12.0 7.7 7.0 71 2.4 SSW 19 26 10 14 1023.5 1023.5 0.6
15/11:00am 11.3 7.8 7.3 76 1.9 SSW 15 22 8 12 1023.5 1023.5 0.6
15/10:30am 10.9 6.8 8.0 82 1.4 SSW 19 28 10 15 1023.2 1023.2 0.2
15/10:00am 12.1 7.5 6.4 68 2.7 S 20 26 11 14 1022.7 1022.7 0.0
15/09:30am 13.2 9.6 5.0 57 3.8 SSW 13 19 7 10 1022.2 1022.2 0.0
15/09:00am 11.7 10.1 6.4 70 2.5 WSW 4 7 2 4 1022.0 1022.0 2.4
15/08:30am 11.0 8.8 7.9 81 1.5 NW 9 11 5 6 1021.7 1021.7 2.4
15/08:00am 10.5 7.9 7.8 83 1.3 NW 11 15 6 8 1021.2 1021.2 2.4
15/07:30am 9.5 6.6 8.3 92 0.6 WNW 13 17 7 9 1020.6 1020.6 2.4
15/07:00am 9.2 6.2 7.9 92 0.6 WNW 13 17 7 9 1020.0 1020.0 2.4
15/06:30am 8.1 4.9 7.0 93 0.5 NW 13 15 7 8 1019.5 1019.5 2.4
15/06:26am 8.2 5.0 6.9 91 0.6 NW 13 13 7 7 1019.4 1019.4 2.4
15/06:07am 7.2 5.0 6.1 93 0.5 NW 7 9 4 5 1019.2 1019.2 2.4
15/06:00am 7.6 5.0 6.1 90 0.7 NW 9 13 5 7 1019.0 1019.0 2.4
15/05:30am 7.8 4.5 6.5 91 0.6 NW 13 15 7 8 1018.5 1018.5 2.4
15/05:00am 8.2 5.0 6.9 91 0.6 WNW 13 15 7 8 1018.0 1018.0 2.4
15/04:30am 7.6 4.4 6.7 94 0.4 WNW 13 15 7 8 1017.5 1017.5 2.4
15/04:28am 7.7 4.4 6.6 93 0.5 WNW 13 15 7 8 1017.5 1017.5 2.4
15/04:00am 8.2 5.8 7.1 93 0.5 W 9 9 5 5 1017.2 1017.2 2.4
15/03:30am 9.3 8.7 7.6 89 0.8 CALM 0 0 0 0 1017.1 1017.1 2.4
15/03:00am 9.2 7.4 7.9 92 0.6 S 7 9 4 5 1016.9 1016.9 2.4
15/02:30am 9.1 6.9 7.8 92 0.6 SSW 9 13 5 7 1016.7 1016.7 2.4
15/02:00am 9.2 7.5 8.2 93 0.5 SW 7 9 4 5 1016.6 1016.6 2.4
15/01:30am 9.6 7.1 8.4 92 0.6 SW 11 13 6 7 1016.7 1016.7 2.4
15/01:00am 9.7 8.0 8.3 91 0.7 SSW 7 9 4 5 1016.6 1016.6 2.4
15/12:47am 9.7 8.0 8.5 92 0.6 S 7 9 4 5 1016.5 1016.5 2.4
15/12:30am 9.8 7.0 8.6 92 0.6 S 13 15 7 8 1016.5 1016.5 2.4
15/12:20am 9.8 7.4 8.6 92 0.6 S 11 15 6 8 1016.6 1016.6 2.4
15/12:00am 9.8 7.1 8.8 93 0.5 S 13 17 7 9 1016.4 1016.4 2.2
 
Date/Time
EDT
Temp
°C
App
Temp
°C
Dew
Point
°C
Rel
Hum
%
Delta-T
°C
Wind Press
QNH
hPa
Press
MSL
hPa
Rain since
9am
mm
Dir  Spd
km/h
Gust
km/h
Spd
kts
Gust
kts
14/11:30pm 9.9 7.5 8.7 92 0.6 SSW 11 15 6 8 1016.4 1016.4 2.2
14/11:00pm 10.0 7.3 9.0 93 0.5 S 13 19 7 10 1016.3 1016.3 2.2
14/10:40pm 10.0 7.3 9.0 93 0.5 S 13 19 7 10 1016.0 1016.0 2.2
14/10:30pm 10.1 7.4 8.9 92 0.6 S 13 19 7 10 1015.9 1015.9 2.2
14/10:11pm 10.0 6.6 9.2 95 0.4 S 17 24 9 13 1015.9 1015.9 2.2
14/10:00pm 10.2 6.4 9.0 92 0.6 S 19 28 10 15 1015.8 1015.8 1.8
14/09:50pm 10.1 7.5 9.3 95 0.4 S 13 19 7 10 1015.6 1015.6 1.6
14/09:38pm 10.3 8.8 9.3 93 0.5 SSW 7 11 4 6 1015.5 1015.5 1.4
14/09:34pm 10.4 9.0 9.4 93 0.5 S 7 11 4 6 1015.5 1015.5 1.2
14/09:30pm 10.5 9.1 9.5 93 0.5 SSE 7 9 4 5 1015.4 1015.4 1.2
14/09:28pm 10.5 9.1 9.5 93 0.5 SE 7 9 4 5 1015.4 1015.4 1.2
14/09:05pm 10.6 8.7 9.0 90 0.8 SSE 9 13 5 7 1015.0 1015.0 1.2
14/09:00pm 10.7 8.4 8.9 89 0.9 SSE 11 15 6 8 1015.1 1015.1 0.8
14/08:30pm 10.6 7.9 9.0 90 0.8 SSE 13 15 7 8 1014.7 1014.7 0.8
14/08:12pm 10.7 7.7 9.3 91 0.7 SSE 15 20 8 11 1014.6 1014.6 0.8
14/08:00pm 10.6 6.8 9.2 91 0.7 SSE 19 26 10 14 1014.5 1014.5 0.8
14/07:55pm 10.5 6.7 9.1 91 0.7 SSE 19 26 10 14 1014.6 1014.6 0.8
14/07:48pm 10.6 7.3 9.4 92 0.6 SSE 17 20 9 11 1014.4 1014.4 0.8
14/07:38pm 10.8 7.9 9.6 92 0.6 SE 15 22 8 12 1014.4 1014.4 0.8
14/07:30pm 10.7 7.4 9.5 92 0.6 SSE 17 22 9 12 1014.1 1014.1 0.6
14/07:22pm 10.6 7.6 9.4 92 0.6 SSE 15 20 8 11 1014.1 1014.1 0.6
14/07:11pm 10.7 7.7 9.3 91 0.7 SSE 15 19 8 10 1014.0 1014.0 0.6
14/07:00pm 11.0 8.0 9.2 89 0.9 S 15 20 8 11 1013.9 1013.9 0.4
14/06:30pm 11.4 7.9 8.8 84 1.3 SSE 17 22 9 12 1013.4 1013.4 0.4
14/06:24pm 11.1 7.7 9.1 87 1.0 SSE 17 26 9 14 1013.4 1013.4 0.4
14/06:21pm 11.1 7.6 8.9 86 1.1 SSE 17 26 9 14 1013.4 1013.4 0.4
14/06:00pm 10.8 6.8 9.2 90 0.8 SSE 20 26 11 14 1013.3 1013.3 0.4
14/05:43pm 10.8 6.5 9.2 90 0.8 S 22 30 12 16 1013.4 1013.4 0.0
14/05:31pm 11.0 5.7 8.6 85 1.2 S 26 35 14 19 1013.4 1013.4 0.0
14/05:30pm 11.1 5.9 8.7 85 1.2 S 26 35 14 19 1013.4 1013.4 0.0
14/05:00pm 11.2 5.2 8.8 85 1.2 SSE 30 37 16 20 1013.0 1013.0 0.0
14/04:58pm 11.2 5.3 9.0 86 1.1 SSE 30 37 16 20 1013.0 1013.0 0.0
14/04:30pm 11.7 6.2 9.3 85 1.2 SSE 28 35 15 19 1012.7 1012.7 0.0
14/04:00pm 11.6 7.0 9.6 87 1.0 SSE 24 33 13 18 1012.7 1012.7 0.0
14/03:30pm 12.1 8.3 9.7 85 1.2 SE 20 30 11 16 1012.4 1012.4 0.0
14/03:00pm 12.7 10.1 10.8 88 1.0 SE 15 22 8 12 1012.3 1012.3 0.0
14/02:30pm 13.2 10.0 11.1 87 1.1 SE 19 30 10 16 1012.1 1012.1 0.0
14/02:00pm 14.2 9.9 10.6 79 1.9 SE 24 33 13 18 1011.8 1011.8 0.0
14/01:48pm 14.4 10.1 10.8 79 1.9 SE 24 35 13 19 1011.7 1011.7 0.0
14/01:30pm 15.6 13.0 10.7 72 2.6 E 15 24 8 13 1011.4 1011.4 0.0
14/01:00pm 16.6 13.6 10.8 68 3.1 E 17 26 9 14 1011.2 1011.2 0.0
14/12:30pm 17.2 14.3 11.1 67 3.3 ENE 17 22 9 12 1011.1 1011.1 0.0
14/12:00pm 18.1 15.5 10.7 62 4.0 E 15 20 8 11 1011.1 1011.1 0.0
14/11:30am 17.5 14.4 10.2 62 3.9 SE 17 22 9 12 1011.5 1011.5 0.0
14/11:00am 16.6 14.2 11.4 71 2.8 SE 15 19 8 10 1011.7 1011.7 0.0
14/10:30am 16.2 13.1 11.6 74 2.5 SE 19 22 10 12 1011.7 1011.7 0.0
14/10:00am 15.9 13.0 12.3 79 2.0 SSE 19 24 10 13 1011.7 1011.7 0.0

Other Formats:

Comma delimited format used in spreadsheet applications
http://www.bom.gov.au/fwo/IDT60801/IDT60801.94975.axf

JavaScript Object Notation format (JSON) in row-major order
http://www.bom.gov.au/fwo/IDT60801/IDT60801.94975.json